Time;durP1;ratioP1;P1;durP2;ratioP2;P2;SDS_P1;SDS_P2;PMS_P1;PMS_P2;Temp;Humidity;BMP_temperature;BMP_pressure;BME280_temperature;BME280_humidity;BME280_pressure;Samples;Min_cycle;Max_cycle;Signal;HPM_P1;HPM_P2
2023/03/30 00:01:09;;;;;;;5.80;2.80;;;;;;;11.39;66.15;97849.84;5014451;28;20066;-77
2023/03/30 00:03:37;;;;;;;5.30;2.45;;;;;;;11.38;65.52;97839.34;5015680;28;20069;-77
2023/03/30 00:06:04;;;;;;;6.65;2.90;;;;;;;11.35;66.25;97847.94;5028820;28;20017;-76
2023/03/30 00:08:29;;;;;;;4.07;2.47;;;;;;;11.41;66.27;97855.00;5005416;28;20033;-78
2023/03/30 00:11:07;;;;;;;4.75;3.20;;;;;;;11.35;66.42;97853.31;4989464;28;20027;-78
2023/03/30 00:13:34;;;;;;;6.72;2.78;;;;;;;11.37;66.42;97854.69;5006322;28;20033;-77
2023/03/30 00:16:00;;;;;;;5.20;2.67;;;;;;;11.33;66.46;97850.06;5030550;28;20079;-76
2023/03/30 00:18:25;;;;;;;3.60;2.40;;;;;;;11.32;66.51;97849.25;5005357;28;20446;-76
2023/03/30 00:20:51;;;;;;;5.65;2.72;;;;;;;11.26;66.91;97844.06;5016155;28;20495;-75
2023/03/30 00:23:18;;;;;;;5.57;2.75;;;;;;;11.27;66.38;97840.34;5007091;28;20037;-75
2023/03/30 00:25:43;;;;;;;4.95;2.97;;;;;;;11.30;66.22;97834.41;5012340;28;20602;-75
2023/03/30 00:28:08;;;;;;;6.32;2.70;;;;;;;11.10;67.25;97814.31;5013955;28;20022;-78
2023/03/30 00:30:35;;;;;;;6.93;3.00;;;;;;;11.20;66.56;97829.78;5009346;28;20485;-78
2023/03/30 00:33:01;;;;;;;6.28;2.72;;;;;;;11.18;66.73;97812.22;5005546;28;20030;-77
2023/03/30 00:35:29;;;;;;;7.13;2.70;;;;;;;11.28;67.10;97825.75;5002403;28;20018;-77
2023/03/30 00:37:56;;;;;;;7.45;2.70;;;;;;;11.22;67.16;97816.03;5012740;28;20065;-78
2023/03/30 00:40:22;;;;;;;4.82;2.53;;;;;;;11.26;66.49;97814.44;5009520;28;20068;-77
2023/03/30 00:42:47;;;;;;;3.20;2.38;;;;;;;11.26;66.37;97809.03;5005454;28;20045;-77
2023/03/30 00:45:22;;;;;;;7.38;2.90;;;;;;;11.27;66.79;97807.97;5013204;28;20025;-77
2023/03/30 00:47:51;;;;;;;7.10;3.10;;;;;;;11.19;67.13;97806.56;5023047;28;20033;-78
2023/03/30 00:50:20;;;;;;;5.38;2.40;;;;;;;11.19;66.74;97797.66;5014703;28;20029;-77
2023/03/30 00:52:47;;;;;;;7.18;2.55;;;;;;;11.18;67.30;97806.84;5007497;28;20041;-77
2023/03/30 00:55:12;;;;;;;4.25;2.88;;;;;;;11.19;67.29;97800.34;5027009;28;20064;-77
2023/03/30 00:57:39;;;;;;;5.15;2.58;;;;;;;11.19;66.76;97800.34;4980012;28;20041;-77
2023/03/30 01:00:07;;;;;;;5.25;2.60;;;;;;;11.21;66.59;97790.13;5009497;28;20129;-76
2023/03/30 01:02:38;;;;;;;5.70;2.47;;;;;;;11.20;66.53;97791.22;5027841;28;20045;-78
2023/03/30 01:05:05;;;;;;;3.65;2.30;;;;;;;11.16;66.76;97788.22;5019689;28;20026;-78
2023/03/30 01:07:31;;;;;;;4.15;2.50;;;;;;;11.13;67.24;97774.44;5031870;28;20369;-78
2023/03/30 01:09:57;;;;;;;3.88;2.67;;;;;;;11.19;66.60;97770.72;5015565;28;20033;-78
2023/03/30 01:12:23;;;;;;;5.60;2.88;;;;;;;11.18;66.70;97767.19;5037486;28;20125;-78
2023/03/30 01:14:48;;;;;;;6.43;2.80;;;;;;;11.17;66.69;97759.38;5017851;28;20042;-78
2023/03/30 01:17:20;;;;;;;5.43;2.65;;;;;;;11.24;66.25;97760.78;5038712;28;20022;-75
2023/03/30 01:20:08;;;;;;;8.45;3.40;;;;;;;11.22;66.37;97754.03;5026287;28;20116;-76
2023/03/30 01:22:48;;;;;;;5.25;2.75;;;;;;;11.13;66.89;97751.81;5024935;28;20040;-76
2023/03/30 01:25:45;;;;;;;6.88;2.75;;;;;;;11.16;66.43;97741.56;5006660;28;20049;-76
2023/03/30 01:28:13;;;;;;;5.13;2.57;;;;;;;11.15;66.35;97739.97;5009227;28;20037;-75
2023/03/30 01:31:06;;;;;;;5.38;2.47;;;;;;;11.20;66.34;97748.09;5022849;28;20273;-78
2023/03/30 01:34:09;;;;;;;4.05;2.97;;;;;;;11.19;66.05;97743.75;5033203;28;20037;-78
2023/03/30 01:36:44;;;;;;;6.78;3.00;;;;;;;11.13;66.39;97750.19;5001899;28;20044;-78
2023/03/30 01:39:47;;;;;;;3.95;2.38;;;;;;;11.20;66.32;97742.69;5038532;28;20072;-78
2023/03/30 01:42:15;;;;;;;5.60;2.80;;;;;;;11.23;66.32;97736.78;5009982;28;20549;-78
2023/03/30 01:45:16;;;;;;;6.93;2.92;;;;;;;11.18;66.49;97744.84;5027237;28;20025;-79
2023/03/30 01:48:00;;;;;;;6.30;2.70;;;;;;;11.13;66.22;97732.94;5005200;28;20045;-78
2023/03/30 01:50:41;;;;;;;5.90;2.40;;;;;;;11.11;66.73;97729.69;5027034;28;20076;-77
2023/03/30 01:53:13;;;;;;;4.25;2.50;;;;;;;11.07;66.65;97728.59;4994642;28;20040;-77
2023/03/30 01:55:57;;;;;;;6.45;3.10;;;;;;;11.04;66.95;97723.72;5003704;28;20560;-77
2023/03/30 01:58:27;;;;;;;5.85;2.40;;;;;;;11.09;66.63;97726.44;5017702;28;20041;-76
2023/03/30 02:00:53;;;;;;;4.30;2.33;;;;;;;11.06;66.81;97721.56;5003249;28;20057;-77
2023/03/30 02:03:26;;;;;;;5.28;2.67;;;;;;;11.05;66.77;97736.13;5010446;28;20025;-78
2023/03/30 02:05:55;;;;;;;7.35;2.65;;;;;;;11.11;66.14;97745.88;5010396;28;20112;-78
2023/03/30 02:08:23;;;;;;;9.30;3.20;;;;;;;11.11;66.29;97743.16;5005401;28;20025;-78
2023/03/30 02:10:50;;;;;;;5.97;3.13;;;;;;;11.01;66.91;97740.41;5021876;28;20523;-79
2023/03/30 02:13:20;;;;;;;5.00;2.92;;;;;;;11.09;66.31;97733.72;5005544;28;20541;-78
2023/03/30 02:16:04;;;;;;;4.75;2.80;;;;;;;11.02;66.63;97739.34;5009502;28;20508;-77
2023/03/30 02:18:37;;;;;;;4.53;2.50;;;;;;;10.85;66.84;97735.97;5003018;28;20457;-78
2023/03/30 02:21:23;;;;;;;6.28;2.75;;;;;;;10.98;66.72;97740.94;5027534;28;20037;-78
2023/03/30 02:23:53;;;;;;;5.93;3.08;;;;;;;10.96;67.25;97743.06;4995747;28;20096;-77
2023/03/30 02:26:18;;;;;;;5.60;2.58;;;;;;;11.03;66.99;97738.28;5021398;28;20028;-78
2023/03/30 02:28:45;;;;;;;6.32;2.70;;;;;;;11.00;66.91;97733.41;5021018;28;20038;-78
2023/03/30 02:31:12;;;;;;;8.20;2.90;;;;;;;11.01;66.94;97740.41;5013850;28;20053;-78
2023/03/30 02:33:59;;;;;;;12.82;3.33;;;;;;;10.95;67.33;97730.66;5024622;28;20033;-77
2023/03/30 02:36:33;;;;;;;6.35;2.83;;;;;;;10.91;67.61;97740.34;5024820;28;20041;-77
2023/03/30 02:39:16;;;;;;;6.90;3.13;;;;;;;11.04;66.82;97745.28;5010988;28;20097;-77
2023/03/30 02:42:19;;;;;;;5.65;3.08;;;;;;;11.06;66.96;97737.75;5014274;28;20044;-78
2023/03/30 02:45:29;;;;;;;6.85;2.95;;;;;;;11.04;66.73;97745.28;5021983;28;20041;-77
2023/03/30 02:48:06;;;;;;;;;;;;;;;10.80;68.04;97738.63;4998548;28;20129;-78
2023/03/30 02:50:59;;;;;;;7.45;3.22;;;;;;;10.85;67.54;97735.97;5017611;28;19916;-77
2023/03/30 02:53:49;;;;;;;6.78;3.10;;;;;;;10.88;67.54;97735.44;5026150;28;20398;-78
2023/03/30 02:56:36;;;;;;;;;;;;;;;10.89;67.46;97726.31;5026142;28;20034;-78
2023/03/30 02:59:08;;;;;;;7.88;3.00;;;;;;;10.96;67.39;97731.47;5029018;28;19956;-78
2023/03/30 03:01:39;;;;;;;8.55;3.10;;;;;;;10.97;66.86;97728.50;5001659;28;20048;-77
2023/03/30 03:04:10;;;;;;;8.63;2.78;;;;;;;11.02;66.95;97727.72;5019628;28;20093;-78
2023/03/30 03:06:45;;;;;;;6.90;2.90;;;;;;;10.93;67.18;97727.41;5024363;28;20037;-78
2023/03/30 03:09:11;;;;;;;7.22;3.00;;;;;;;10.97;67.34;97733.91;5005632;28;20334;-78
2023/03/30 03:11:36;;;;;;;6.90;3.42;;;;;;;11.00;67.16;97727.19;5010720;28;20017;-78
2023/03/30 03:14:02;;;;;;;5.38;3.42;;;;;;;11.08;66.62;97732.91;5010284;28;20037;-77
2023/03/30 03:16:30;;;;;;;6.32;3.38;;;;;;;10.97;67.88;97741.97;5020383;28;20029;-77
2023/03/30 03:19:15;;;;;;;8.88;3.88;;;;;;;11.07;66.53;97736.69;5007293;28;20026;-77
2023/03/30 03:21:41;;;;;;;6.32;3.67;;;;;;;11.08;67.07;97718.63;5025119;28;20030;-78
2023/03/30 03:24:07;;;;;;;10.98;4.13;;;;;;;11.19;66.73;97714.09;4995106;28;20034;-78
2023/03/30 03:26:53;;;;;;;9.23;3.22;;;;;;;11.12;66.96;97717.03;4996139;28;20049;-78
2023/03/30 03:29:21;;;;;;;6.70;3.20;;;;;;;11.18;66.54;97723.28;4991577;28;20034;-77
2023/03/30 03:31:47;;;;;;;8.45;4.00;;;;;;;11.25;66.67;97723.88;5002506;28;20028;-77
2023/03/30 03:34:13;;;;;;;10.15;3.42;;;;;;;11.19;66.76;97719.50;5016601;28;20029;-77
2023/03/30 03:37:05;;;;;;;8.48;3.50;;;;;;;11.13;67.42;97727.53;5013522;28;20048;-79
2023/03/30 03:39:32;;;;;;;9.15;3.47;;;;;;;11.15;66.81;97731.88;5009173;28;20034;-78
2023/03/30 03:42:07;;;;;;;7.57;3.42;;;;;;;11.18;67.37;97717.91;5001992;28;20139;-77
2023/03/30 03:44:39;;;;;;;8.88;3.20;;;;;;;11.16;67.04;97714.63;5008178;28;20151;-78
2023/03/30 03:47:05;;;;;;;5.25;3.08;;;;;;;11.17;67.06;97717.06;5003696;28;20030;-76
2023/03/30 03:49:30;;;;;;;7.53;2.60;;;;;;;11.09;67.49;97734.53;5022303;28;20037;-76
2023/03/30 03:51:56;;;;;;;13.98;3.60;;;;;;;11.10;67.38;97736.16;4997986;28;20041;-77
2023/03/30 03:54:21;;;;;;;8.35;3.20;;;;;;;11.11;68.02;97729.69;5022014;28;20022;-76
2023/03/30 03:56:51;;;;;;;7.90;3.30;;;;;;;11.13;67.43;97732.94;4994754;28;20033;-77
2023/03/30 03:59:16;;;;;;;8.82;2.95;;;;;;;11.13;67.24;97738.31;4997033;28;20025;-77
2023/03/30 04:01:41;;;;;;;9.48;3.40;;;;;;;11.13;67.85;97736.72;5000604;28;20118;-77
2023/03/30 04:04:07;;;;;;;6.47;3.28;;;;;;;11.16;67.60;97733.47;5022445;28;20026;-77
2023/03/30 04:06:32;;;;;;;8.40;3.38;;;;;;;11.11;67.54;97723.47;5009986;28;20165;-77
2023/03/30 04:08:58;;;;;;;6.10;3.35;;;;;;;11.21;67.48;97733.53;5007949;28;20025;-77
2023/03/30 04:11:43;;;;;;;9.95;3.80;;;;;;;11.17;67.59;97722.47;5021847;28;20126;-76
2023/03/30 04:14:41;;;;;;;8.20;3.65;;;;;;;11.27;67.15;97732.50;4984510;28;20071;-77
2023/03/30 04:17:36;;;;;;;8.23;3.38;;;;;;;11.23;67.76;97725.97;5004677;28;20036;-78
2023/03/30 04:20:22;;;;;;;12.00;3.63;;;;;;;11.36;67.24;97720.16;5024085;28;20140;-77
2023/03/30 04:22:55;;;;;;;;;;;;;;;11.28;67.67;97728.72;5019716;28;20030;-76
2023/03/30 04:25:38;;;;;;;7.97;3.60;;;;;;;11.29;67.52;97724.97;5003679;28;20367;-76
2023/03/30 04:28:04;;;;;;;9.98;4.05;;;;;;;11.30;67.50;97727.38;5022523;28;20044;-76
2023/03/30 04:30:32;;;;;;;6.13;3.22;;;;;;;11.38;67.10;97728.78;5019302;28;20038;-76
2023/03/30 04:33:16;;;;;;;8.82;3.67;;;;;;;11.44;66.94;97727.72;5035426;28;20041;-75
2023/03/30 04:36:05;;;;;;;10.57;4.15;;;;;;;11.35;67.10;97729.31;5009495;28;20530;-75
2023/03/30 04:38:57;;;;;;;8.57;4.13;;;;;;;11.33;67.17;97731.44;5032288;28;20033;-75
2023/03/30 04:41:44;;;;;;;8.98;5.03;;;;;;;11.30;67.64;97737.34;5019267;28;20422;-77
2023/03/30 04:44:21;;;;;;;10.32;5.13;;;;;;;11.24;68.80;97743.78;5012142;28;20108;-76
2023/03/30 04:47:09;;;;;;;8.77;4.97;;;;;;;11.17;70.43;97751.28;5025779;28;20022;-77
2023/03/30 04:49:53;;;;;;;16.30;10.52;;;;;;;10.86;74.65;97753.75;4989915;28;20045;-77
2023/03/30 04:52:37;;;;;;;18.65;16.98;;;;;;;10.79;76.03;97763.94;5022784;28;20557;-76
2023/03/30 04:55:10;;;;;;;29.83;27.77;;;;;;;10.74;75.62;97766.56;5025722;28;20053;-77
2023/03/30 04:58:01;;;;;;;39.58;36.85;;;;;;;10.75;76.14;97778.97;4999557;28;20072;-77
2023/03/30 05:00:33;;;;;;;43.13;39.95;;;;;;;10.73;76.02;97783.81;5012515;28;20041;-77
2023/03/30 05:03:31;;;;;;;47.70;44.70;;;;;;;10.72;76.21;97774.09;4971737;28;20394;-76
2023/03/30 05:06:05;;;;;;;52.10;49.13;;;;;;;10.77;76.70;97776.03;5008811;28;20033;-76
2023/03/30 05:08:52;;;;;;;53.45;49.92;;;;;;;10.76;77.39;97777.91;5004987;28;20578;-76
2023/03/30 05:11:18;;;;;;;58.83;54.95;;;;;;;10.80;77.46;97765.56;5022449;28;20125;-76
2023/03/30 05:14:01;;;;;;;60.05;56.42;;;;;;;10.83;77.27;97759.66;5009984;28;20025;-76
2023/03/30 05:16:51;;;;;;;64.88;60.70;;;;;;;10.68;78.88;97745.25;4996656;28;20388;-76
2023/03/30 05:19:48;;;;;;;61.03;57.53;;;;;;;10.61;78.83;97726.59;5018021;28;20442;-77
2023/03/30 05:22:37;;;;;;;59.22;56.13;;;;;;;10.69;78.08;97707.28;4978087;28;20050;-77
2023/03/30 05:25:26;;;;;;;60.63;57.28;;;;;;;10.73;77.88;97707.59;5011732;28;20045;-78
2023/03/30 05:28:15;;;;;;;54.47;51.33;;;;;;;10.75;77.36;97703.56;5006387;28;20064;-77
2023/03/30 05:30:54;;;;;;;60.65;56.85;;;;;;;10.86;77.66;97699.06;5018286;28;20033;-77
2023/03/30 05:33:42;;;;;;;57.83;53.97;;;;;;;10.84;77.42;97685.88;5013279;28;20091;-77
2023/03/30 05:36:29;;;;;;;59.67;56.22;;;;;;;10.78;77.91;97692.25;5004089;28;20113;-77
2023/03/30 05:39:03;;;;;;;63.20;59.60;;;;;;;10.73;78.71;97705.72;5023343;28;20037;-77
2023/03/30 05:41:52;;;;;;;64.32;60.13;;;;;;;10.92;77.71;97698.84;5013503;28;20108;-78
2023/03/30 05:44:38;;;;;;;70.53;65.22;;;;;;;10.95;78.32;97714.50;5020032;28;20447;-77
2023/03/30 05:47:22;;;;;;;110.10;99.80;;;;;;;10.85;79.31;97717.09;5018204;28;20048;-77
2023/03/30 05:50:03;;;;;;;89.35;82.05;;;;;;;10.79;79.48;97715.44;5003476;28;20030;-77
2023/03/30 05:52:46;;;;;;;112.72;102.68;;;;;;;10.77;79.31;97717.59;5002801;28;20072;-77
2023/03/30 05:55:23;;;;;;;75.32;70.70;;;;;;;10.57;80.38;97711.22;5006734;28;20030;-78
2023/03/30 05:58:05;;;;;;;71.28;66.82;;;;;;;10.71;80.58;97713.22;5007161;28;20642;-77
2023/03/30 06:00:43;;;;;;;69.88;65.88;;;;;;;10.74;79.87;97712.72;5031087;28;20033;-77
2023/03/30 06:03:19;;;;;;;70.07;65.75;;;;;;;10.72;79.70;97701.38;5019016;28;20025;-77
2023/03/30 06:05:45;;;;;;;77.88;72.57;;;;;;;10.83;79.75;97705.78;4983961;28;20052;-77
2023/03/30 06:08:10;;;;;;;67.40;63.03;;;;;;;10.88;79.71;97697.72;5005972;28;20033;-77
2023/03/30 06:10:37;;;;;;;66.18;62.28;;;;;;;11.07;79.41;97692.75;5005366;28;20033;-77
2023/03/30 06:13:03;;;;;;;64.55;60.42;;;;;;;11.13;78.82;97678.25;4983877;28;20501;-77
2023/03/30 06:15:38;;;;;;;60.97;57.43;;;;;;;11.23;78.68;97669.38;5030877;28;20033;-77
2023/03/30 06:18:07;;;;;;;61.38;57.42;;;;;;;11.31;78.41;97668.91;5013830;28;20029;-77
2023/03/30 06:20:35;;;;;;;62.53;58.55;;;;;;;11.34;78.61;97671.88;5015444;28;20033;-77
2023/03/30 06:23:00;;;;;;;62.50;58.75;;;;;;;11.31;79.87;97663.50;4998010;28;20037;-77
2023/03/30 06:25:26;;;;;;;61.20;57.80;;;;;;;11.38;79.10;97654.13;4998072;28;20425;-75
2023/03/30 06:27:53;;;;;;;61.78;58.03;;;;;;;11.35;79.52;97643.03;5001143;28;20030;-76
2023/03/30 06:30:18;;;;;;;62.72;59.03;;;;;;;11.41;79.36;97642.00;4983977;28;20049;-77
2023/03/30 06:32:47;;;;;;;66.88;63.28;;;;;;;11.41;79.42;97625.81;4988438;28;20411;-76
2023/03/30 06:35:19;;;;;;;68.85;64.90;;;;;;;11.45;79.67;97621.53;4998948;28;20058;-76
2023/03/30 06:37:45;;;;;;;68.40;64.47;;;;;;;11.46;79.63;97628.56;5013892;28;20084;-76
2023/03/30 06:40:16;;;;;;;68.35;64.25;;;;;;;11.50;81.09;97618.84;5029754;28;20026;-76
2023/03/30 06:42:45;;;;;;;71.63;67.80;;;;;;;11.57;80.74;97619.41;5004566;28;20033;-76
2023/03/30 06:45:27;;;;;;;73.63;69.32;;;;;;;11.53;81.68;97612.91;5012030;28;20041;-77
2023/03/30 06:47:53;;;;;;;70.63;66.38;;;;;;;11.53;82.48;97612.91;5005532;28;20039;-78
2023/03/30 06:50:20;;;;;;;70.20;65.88;;;;;;;11.45;82.73;97602.66;4993397;28;20555;-78
2023/03/30 06:52:48;;;;;;;70.18;65.95;;;;;;;11.41;83.11;97593.47;4999363;28;20042;-79
2023/03/30 06:55:13;;;;;;;69.07;64.95;;;;;;;11.33;83.54;97607.44;5008319;28;20048;-78
2023/03/30 06:57:39;;;;;;;72.38;67.97;;;;;;;11.33;84.03;97616.34;4995074;28;20045;-78
2023/03/30 07:00:12;;;;;;;70.18;65.95;;;;;;;11.39;84.33;97615.28;5010353;28;20027;-78
2023/03/30 07:02:40;;;;;;;68.95;64.50;;;;;;;11.41;84.29;97618.53;4999895;28;20085;-78
2023/03/30 07:05:23;;;;;;;69.25;64.68;;;;;;;11.55;84.65;97618.88;5023317;28;20032;-78
2023/03/30 07:08:06;;;;;;;66.47;61.88;;;;;;;11.46;85.12;97612.38;5000756;28;20080;-78
2023/03/30 07:10:31;;;;;;;68.07;63.58;;;;;;;11.50;84.10;97592.69;4997899;28;20033;-78
2023/03/30 07:12:59;;;;;;;63.72;59.40;;;;;;;11.38;85.53;97594.00;5007159;28;20027;-78
2023/03/30 07:15:28;;;;;;;65.88;62.03;;;;;;;11.43;85.58;97591.31;5015839;28;20044;-78
2023/03/30 07:17:54;;;;;;;68.13;63.83;;;;;;;11.30;86.25;97597.19;5003518;28;20030;-78
2023/03/30 07:20:20;;;;;;;68.80;64.10;;;;;;;11.34;85.84;97598.31;5016600;28;20038;-78
2023/03/30 07:23:03;;;;;;;66.28;61.33;;;;;;;11.24;86.62;97614.41;4994817;28;20028;-78
2023/03/30 07:25:30;;;;;;;69.10;64.55;;;;;;;11.33;86.72;97623.63;4986852;28;20080;-78
2023/03/30 07:27:57;;;;;;;65.22;60.88;;;;;;;11.15;87.38;97653.72;4990485;28;20018;-78
2023/03/30 07:30:22;;;;;;;66.13;61.60;;;;;;;11.07;87.92;97701.66;5003631;28;20509;-78
2023/03/30 07:32:53;;;;;;;63.45;59.20;;;;;;;11.01;87.85;97759.28;5020397;28;20060;-78
2023/03/30 07:35:18;;;;;;;56.47;51.95;;;;;;;10.93;89.05;97792.06;4999089;28;20436;-78
2023/03/30 07:37:44;;;;;;;53.22;49.15;;;;;;;10.89;90.27;97812.53;5008102;28;20042;-78
2023/03/30 07:40:11;;;;;;;48.08;44.38;;;;;;;10.84;90.77;97815.16;5011462;28;20511;-77
2023/03/30 07:42:40;;;;;;;45.13;41.67;;;;;;;10.77;91.25;97821.81;5005779;28;20037;-77
2023/03/30 07:45:06;;;;;;;47.30;44.08;;;;;;;10.72;90.53;97806.41;4987692;28;20042;-78
2023/03/30 07:47:31;;;;;;;44.42;40.55;;;;;;;10.60;91.19;97816.53;5005317;28;20576;-77
2023/03/30 07:49:57;;;;;;;45.22;41.35;;;;;;;10.54;91.47;97836.41;4985393;28;20113;-77
2023/03/30 07:52:24;;;;;;;49.63;44.92;;;;;;;10.63;90.87;97817.91;5010660;28;20057;-78
2023/03/30 07:54:55;;;;;;;54.80;49.45;;;;;;;10.64;91.71;97836.47;5012650;28;20493;-77
2023/03/30 07:57:29;;;;;;;50.83;46.25;;;;;;;10.53;91.60;97845.53;5007949;28;20037;-77
2023/03/30 07:59:57;;;;;;;43.97;39.90;;;;;;;10.44;92.35;97852.44;4998335;28;20034;-76
2023/03/30 08:02:37;;;;;;;43.42;39.58;;;;;;;10.66;91.37;97836.25;5012186;28;20033;-77
2023/03/30 08:05:05;;;;;;;48.60;44.83;;;;;;;10.51;91.54;97847.66;4988558;28;20036;-77
2023/03/30 08:07:40;;;;;;;;;;;;;;;10.51;91.87;97866.50;5017694;28;20044;-78
2023/03/30 08:10:12;;;;;;;46.40;42.58;;;;;;;10.65;91.09;97851.59;5014791;28;19924;-78
2023/03/30 08:12:38;;;;;;;46.17;42.05;;;;;;;10.64;91.08;97858.03;4994281;28;20092;-77
2023/03/30 08:15:05;;;;;;;47.15;43.55;;;;;;;10.67;90.97;97857.53;5022472;28;20142;-78
2023/03/30 08:17:30;;;;;;;51.85;47.78;;;;;;;10.75;90.03;97848.19;5020549;28;20595;-77
2023/03/30 08:19:56;;;;;;;48.47;44.65;;;;;;;10.66;91.21;97845.16;5022663;28;20029;-78
2023/03/30 08:22:22;;;;;;;51.00;46.80;;;;;;;10.75;90.55;97843.63;5021825;28;20501;-78
2023/03/30 08:24:47;;;;;;;51.38;47.58;;;;;;;10.72;89.86;97822.56;5010044;28;20025;-78
2023/03/30 08:27:13;;;;;;;49.90;45.97;;;;;;;10.81;89.90;97826.44;5011506;28;20030;-78
2023/03/30 08:29:39;;;;;;;49.60;45.47;;;;;;;10.64;91.12;97827.63;5022663;28;20104;-78
2023/03/30 08:32:05;;;;;;;52.40;48.35;;;;;;;10.72;90.92;97825.28;5021382;28;20368;-77
2023/03/30 08:34:31;;;;;;;47.88;43.72;;;;;;;10.75;91.25;97832.84;5017549;28;20229;-78
2023/03/30 08:36:56;;;;;;;48.80;44.90;;;;;;;10.74;90.86;97817.75;5018440;28;20087;-78
2023/03/30 08:39:23;;;;;;;47.33;43.40;;;;;;;10.76;90.99;97812.91;5020226;28;20025;-78
2023/03/30 08:42:04;;;;;;;45.63;42.47;;;;;;;10.76;90.77;97810.22;5041529;28;20048;-78
2023/03/30 08:44:38;;;;;;;50.47;46.08;;;;;;;10.80;91.16;97803.28;5025039;28;20101;-77
2023/03/30 08:47:07;;;;;;;48.38;44.38;;;;;;;10.87;90.97;97805.75;5038224;28;20044;-78
2023/03/30 08:49:39;;;;;;;48.15;43.97;;;;;;;10.88;91.20;97800.09;5020658;28;20040;-78
2023/03/30 08:52:05;;;;;;;48.10;44.58;;;;;;;10.81;91.17;97777.94;5021371;28;20033;-78
2023/03/30 08:54:32;;;;;;;46.10;42.47;;;;;;;10.92;90.97;97790.44;5021426;28;20237;-78
2023/03/30 08:57:08;;;;;;;47.40;43.60;;;;;;;10.95;90.85;97784.53;5022398;28;20032;-78
2023/03/30 08:59:40;;;;;;;45.25;41.55;;;;;;;10.90;90.99;97762.94;5036991;28;20040;-78
2023/03/30 09:02:22;;;;;;;45.65;41.75;;;;;;;10.95;91.14;97763.00;5013091;28;20123;-78
2023/03/30 09:05:00;;;;;;;45.00;41.50;;;;;;;10.94;90.77;97750.59;5001181;28;20128;-78
2023/03/30 09:07:39;;;;;;;46.47;42.30;;;;;;;10.86;91.78;97753.75;5016101;28;20030;-79
2023/03/30 09:10:12;;;;;;;44.78;41.10;;;;;;;11.11;90.98;97766.59;5018057;28;20495;-79
2023/03/30 09:12:44;;;;;;;44.65;41.20;;;;;;;10.94;91.21;97756.00;5017673;28;20038;-79
2023/03/30 09:15:45;;;;;;;45.17;41.50;;;;;;;11.02;91.10;97774.34;5034273;28;20423;-79
2023/03/30 09:18:18;;;;;;;46.22;42.88;;;;;;;11.27;89.82;97762.94;4999771;28;20042;-78
2023/03/30 09:20:45;;;;;;;46.75;43.05;;;;;;;11.17;90.90;97760.19;5044119;28;20517;-78
2023/03/30 09:23:14;;;;;;;49.53;46.13;;;;;;;11.15;90.73;97761.53;5004979;28;20499;-78
2023/03/30 09:25:50;;;;;;;47.83;44.83;;;;;;;11.06;90.75;97759.28;4991362;28;20049;-77
2023/03/30 09:28:52;;;;;;;48.42;45.22;;;;;;;10.99;90.25;97756.00;5008863;28;20388;-77
2023/03/30 09:31:26;;;;;;;48.13;44.88;;;;;;;11.11;90.02;97755.81;4985182;28;20045;-77
2023/03/30 09:34:11;;;;;;;48.58;45.42;;;;;;;11.09;90.65;97757.97;5002727;28;20042;-78
2023/03/30 09:36:56;;;;;;;48.10;45.10;;;;;;;11.11;90.54;97750.44;4985699;28;20038;-78
2023/03/30 09:39:24;;;;;;;48.25;44.58;;;;;;;11.07;90.85;97733.16;4992263;28;20071;-77
2023/03/30 09:42:17;;;;;;;46.30;43.53;;;;;;;11.16;90.35;97720.00;4985433;28;20434;-76
2023/03/30 09:44:47;;;;;;;46.65;43.70;;;;;;;11.23;90.24;97686.38;5023627;28;20380;-78
2023/03/30 09:47:38;;;;;;;46.60;43.70;;;;;;;11.40;89.34;97672.72;4998197;28;20021;-77
2023/03/30 09:50:22;;;;;;;49.75;46.40;;;;;;;11.37;89.64;97667.84;5007647;28;20049;-78
2023/03/30 09:53:03;;;;;;;47.22;44.35;;;;;;;11.42;89.56;97670.56;5023644;28;20037;-77
2023/03/30 09:55:31;;;;;;;46.78;43.55;;;;;;;11.43;89.22;97661.41;5019349;28;20045;-78
2023/03/30 09:58:17;;;;;;;46.83;43.90;;;;;;;11.47;89.31;97676.81;4983444;28;20022;-78
2023/03/30 10:00:43;;;;;;;48.60;45.60;;;;;;;11.67;88.79;97673.38;5023219;28;20061;-78
2023/03/30 10:03:18;;;;;;;47.53;44.00;;;;;;;11.94;88.03;97684.84;5012978;28;20503;-78
2023/03/30 10:05:44;;;;;;;49.17;45.90;;;;;;;11.98;88.87;97702.13;5006993;28;20511;-77
2023/03/30 10:08:19;;;;;;;45.53;41.90;;;;;;;12.13;88.70;97704.88;4987006;28;20330;-78
2023/03/30 10:10:52;;;;;;;48.22;44.70;;;;;;;12.21;88.89;97709.75;5020043;28;20037;-78
2023/03/30 10:13:18;;;;;;;49.58;46.13;;;;;;;12.30;88.83;97694.63;4989498;28;20041;-79
2023/03/30 10:15:47;;;;;;;49.97;46.45;;;;;;;12.38;88.73;97707.63;5019109;28;20364;-78
2023/03/30 10:18:23;;;;;;;50.83;47.35;;;;;;;12.54;88.26;97708.44;5025341;28;20425;-78
2023/03/30 10:20:54;;;;;;;51.08;47.33;;;;;;;12.56;88.86;97697.38;5025430;28;20037;-78
2023/03/30 10:23:21;;;;;;;52.17;48.40;;;;;;;12.84;87.89;97696.84;4995664;28;20484;-78
2023/03/30 10:25:49;;;;;;;54.42;50.78;;;;;;;12.85;87.99;97695.75;5009131;28;20025;-77
2023/03/30 10:28:20;;;;;;;53.67;50.05;;;;;;;12.94;87.93;97688.72;4995927;28;20042;-78
2023/03/30 10:30:51;;;;;;;56.58;52.83;;;;;;;13.04;87.48;97702.25;5025640;28;20109;-78
2023/03/30 10:33:17;;;;;;;54.13;50.22;;;;;;;13.11;88.16;97683.88;5011670;28;20544;-77
2023/03/30 10:35:42;;;;;;;56.55;52.45;;;;;;;13.04;88.06;97683.31;5025493;28;20017;-78
2023/03/30 10:38:09;;;;;;;54.13;50.67;;;;;;;13.13;88.18;97670.91;5012052;28;20053;-78
2023/03/30 10:40:36;;;;;;;56.08;52.05;;;;;;;12.93;87.80;97677.09;4992503;28;20088;-77
2023/03/30 10:43:03;;;;;;;56.38;52.22;;;;;;;12.82;88.16;97690.91;4997612;28;20038;-78
2023/03/30 10:45:48;;;;;;;53.67;49.88;;;;;;;12.83;87.82;97703.34;5018246;28;20022;-78
2023/03/30 10:48:20;;;;;;;55.23;51.53;;;;;;;13.00;88.12;97693.03;4999147;28;20025;-78
2023/03/30 10:51:06;;;;;;;58.97;54.90;;;;;;;13.55;86.16;97694.88;4990897;28;20084;-78
2023/03/30 10:53:38;;;;;;;;;;;;;;;13.32;86.53;97690.06;5015166;28;20555;-78
2023/03/30 10:56:46;;;;;;;59.15;55.42;;;;;;;13.45;85.47;97687.59;5013107;28;20363;-77
2023/03/30 10:59:46;;;;;;;60.53;56.33;;;;;;;13.81;86.16;97667.44;4997837;28;20062;-77
2023/03/30 11:02:26;;;;;;;59.58;56.15;;;;;;;14.13;84.45;97669.69;5009233;28;20069;-77
2023/03/30 11:05:14;;;;;;;62.70;58.78;;;;;;;14.41;83.34;97660.88;5027128;28;20045;-77
2023/03/30 11:07:51;;;;;;;62.33;58.30;;;;;;;14.57;83.48;97664.28;4991830;28;20048;-77
2023/03/30 11:10:28;;;;;;;61.30;57.80;;;;;;;14.52;83.02;97650.75;5024750;28;20464;-77
2023/03/30 11:13:05;;;;;;;61.42;58.22;;;;;;;14.42;84.21;97646.22;4985861;28;20033;-77
2023/03/30 11:16:01;;;;;;;61.63;58.22;;;;;;;14.15;84.26;97624.19;5024945;28;20038;-77
2023/03/30 11:18:50;;;;;;;63.28;59.75;;;;;;;14.15;84.01;97634.19;4999887;28;20602;-77
2023/03/30 11:21:20;;;;;;;61.67;58.55;;;;;;;14.26;82.09;97646.59;5030143;28;20073;-77
2023/03/30 11:23:52;;;;;;;54.55;51.75;;;;;;;14.43;81.62;97649.75;5026525;28;20044;-77
2023/03/30 11:26:23;;;;;;;51.92;48.65;;;;;;;13.91;82.89;97644.09;5011926;28;20038;-78
2023/03/30 11:29:33;;;;;;;48.50;45.80;;;;;;;13.76;81.92;97647.69;5011654;28;20041;-78
2023/03/30 11:32:13;;;;;;;48.00;45.30;;;;;;;13.93;81.66;97641.94;4946142;29;20436;-78
2023/03/30 11:35:29;;;;;;;45.17;42.58;;;;;;;13.69;80.25;97650.72;4995275;28;20041;-78
2023/03/30 11:38:20;;;;;;;21.75;20.42;;;;;;;13.67;76.66;97649.38;4971657;28;20631;-78
2023/03/30 11:40:58;;;;;;;21.77;20.38;;;;;;;13.63;77.94;97654.50;5012859;28;20475;-78
2023/03/30 11:43:26;;;;;;;18.60;17.25;;;;;;;13.61;77.30;97662.09;5011694;28;20045;-77
2023/03/30 11:46:08;;;;;;;12.75;11.60;;;;;;;13.65;76.10;97662.38;5007630;28;20044;-78
2023/03/30 11:48:53;;;;;;;13.65;12.43;;;;;;;13.55;76.69;97679.44;5000422;28;20031;-77
2023/03/30 11:51:42;;;;;;;14.52;13.23;;;;;;;13.58;76.49;97661.84;5023600;28;20044;-79
2023/03/30 11:54:35;;;;;;;24.13;22.58;;;;;;;13.65;77.23;97663.16;5015658;28;20029;-79
2023/03/30 11:57:29;;;;;;;16.60;15.40;;;;;;;13.82;74.87;97671.75;5019503;28;20048;-78
2023/03/30 12:00:15;;;;;;;17.65;16.42;;;;;;;13.94;75.69;97657.06;5000955;28;20543;-78